Portada
METAR-TAF:

METAR-TAF

Aeroports :

Versailles, Ohio, Estats Units d'Amèrica

latitud: 40-12-16N, longitud: 084-31-55W, altitud: 307 m

Observació

L'informe es va fer fa 41 minuts, a les 06:30 UTC
Vent 12 kt del Sud-Oest amb ràfegues de 18 kt
Temperatura 27°C
Humitat 51%
Pressió 1010 hPa
Visibilitat: 16.1 km
Cel clar

METAR: KVES 230630Z AUTO 23012G18KT 10SM CLR 27/16 A2982 RMK AO2

Hora: 03:11 (07:11 UTC)


TAF: manca

Observacions i pronòstics meteorològics de més de 4000 aeroports (METAR i TAF).

Les estacions disponibles són els punts grocs i vermells al mapa.

Posi el ratolí al punt desitjat per veure el nom de l'estació.

Feu clic per veure les observacions i els pronòstics meteorològics.

Per canviar el mapa: feu clic els botons verds amb una creu de color negre per apropar; al botó verd amb un guió per allunyar la imatge; o en les fletxes verdes per a mapes adjacents.


METAR-TAF: